createdAt,value
2018-12-16T00:04:02.414Z,100.00
2018-12-16T00:09:07.877Z,100.00
2018-12-16T00:14:13.089Z,100.00
2018-12-16T00:19:16.268Z,100.00
2018-12-16T00:24:19.579Z,100.00
2018-12-16T00:29:22.757Z,100.00
2018-12-16T00:34:26.087Z,100.00
2018-12-16T00:39:29.352Z,100.00
2018-12-16T00:44:32.672Z,100.00
2018-12-16T00:49:35.990Z,100.00
2018-12-16T00:54:39.499Z,100.00
2018-12-16T00:59:42.807Z,100.00
2018-12-16T01:04:45.971Z,100.00
2018-12-16T01:09:49.156Z,100.00
2018-12-16T01:14:52.354Z,99.78
2018-12-16T01:19:55.627Z,100.00
2018-12-16T01:24:59.270Z,99.94
2018-12-16T01:30:02.414Z,100.00
2018-12-16T01:35:06.082Z,100.00
2018-12-16T01:40:09.299Z,100.00
2018-12-16T01:45:12.703Z,100.00
2018-12-16T01:50:15.955Z,100.00
2018-12-16T01:55:19.326Z,100.00
2018-12-16T02:00:23.149Z,100.00
2018-12-16T02:05:26.441Z,100.00
2018-12-16T02:10:29.724Z,100.00
2018-12-16T02:15:32.995Z,100.00
2018-12-16T02:20:36.258Z,100.00
2018-12-16T02:25:39.557Z,100.00
2018-12-16T02:30:42.777Z,100.00
2018-12-16T02:35:46.117Z,100.00
2018-12-16T02:40:49.419Z,100.00
2018-12-16T02:45:52.682Z,100.00
2018-12-16T02:50:55.956Z,99.16
2018-12-16T02:55:59.289Z,98.72
2018-12-16T03:01:02.647Z,99.31
2018-12-16T03:06:05.957Z,99.49
2018-12-16T03:11:09.172Z,100.00
2018-12-16T03:16:12.440Z,100.00
2018-12-16T03:21:15.687Z,100.00
2018-12-16T03:26:19.583Z,100.00
2018-12-16T03:31:22.758Z,100.00
2018-12-16T03:36:27.012Z,100.00
2018-12-16T03:41:30.288Z,100.00
2018-12-16T03:46:33.615Z,100.00
2018-12-16T03:51:36.856Z,100.00
2018-12-16T03:56:40.038Z,100.00
2018-12-16T04:01:45.385Z,100.00
2018-12-16T04:06:48.531Z,100.00
2018-12-16T04:11:51.996Z,100.00
2018-12-16T04:16:55.288Z,100.00
2018-12-16T04:21:58.593Z,100.00
2018-12-16T04:27:01.884Z,100.00
2018-12-16T04:32:05.189Z,100.00
2018-12-16T04:37:08.438Z,100.00
2018-12-16T04:42:11.639Z,100.00
2018-12-16T04:47:14.941Z,100.00
2018-12-16T04:52:18.130Z,100.00
2018-12-16T04:57:24.997Z,100.00
2018-12-16T05:02:29.483Z,100.00
2018-12-16T05:07:32.947Z,100.00
2018-12-16T05:12:36.174Z,100.00
2018-12-16T05:17:39.413Z,100.00
2018-12-16T05:22:42.649Z,100.00
2018-12-16T05:27:45.944Z,100.00
2018-12-16T05:32:49.150Z,100.00
2018-12-16T05:37:52.389Z,100.00
2018-12-16T05:42:55.673Z,100.00
2018-12-16T05:47:59.154Z,100.00
2018-12-16T05:53:02.437Z,100.00
2018-12-16T05:58:05.895Z,100.00
2018-12-16T06:03:09.130Z,100.00
2018-12-16T06:08:12.410Z,100.00
2018-12-16T06:13:16.052Z,100.00
2018-12-16T06:18:19.317Z,100.00
2018-12-16T06:23:22.597Z,100.00
2018-12-16T06:28:25.979Z,100.00
2018-12-16T06:33:29.228Z,100.00
2018-12-16T06:38:32.531Z,100.00
2018-12-16T06:43:35.695Z,99.94
2018-12-16T06:48:38.837Z,99.32
2018-12-16T06:53:42.120Z,99.54
2018-12-16T06:58:45.402Z,98.95
2018-12-16T07:03:48.885Z,99.41
2018-12-16T07:08:52.181Z,99.51
2018-12-16T07:13:55.597Z,100.00
2018-12-16T07:18:58.997Z,100.00
2018-12-16T07:24:09.019Z,100.00
2018-12-16T07:29:08.646Z,100.00
2018-12-16T07:34:12.048Z,100.00
2018-12-16T07:39:15.376Z,100.00
2018-12-16T07:44:19.044Z,99.55
2018-12-16T07:49:22.393Z,99.49
2018-12-16T07:54:25.583Z,98.63
2018-12-16T07:59:28.925Z,99.52
2018-12-16T08:04:33.228Z,99.27
2018-12-16T08:09:36.507Z,99.85
2018-12-16T08:14:39.791Z,100.00
2018-12-16T08:19:43.079Z,100.00
2018-12-16T08:24:46.649Z,100.00
2018-12-16T08:29:49.997Z,100.00
2018-12-16T08:34:53.206Z,100.00
2018-12-16T08:39:56.519Z,100.00
2018-12-16T08:44:59.911Z,100.00
2018-12-16T08:50:03.590Z,100.00
2018-12-16T08:55:07.128Z,100.00
2018-12-16T09:00:10.753Z,100.00
2018-12-16T09:05:14.123Z,100.00
2018-12-16T09:10:17.622Z,100.00
2018-12-16T09:15:20.842Z,98.19
2018-12-16T09:20:24.225Z,97.05
2018-12-16T09:25:27.386Z,95.79
2018-12-16T09:30:30.667Z,94.23
2018-12-16T09:35:33.921Z,95.16
2018-12-16T09:40:37.164Z,95.18
2018-12-16T09:45:40.664Z,93.67
2018-12-16T09:50:44.086Z,93.17
2018-12-16T09:55:47.238Z,92.00
2018-12-16T10:00:50.527Z,93.25
2018-12-16T10:05:53.732Z,92.82
2018-12-16T10:10:57.536Z,90.01
2018-12-16T10:16:00.763Z,90.68
2018-12-16T10:21:04.415Z,90.18
2018-12-16T10:26:07.683Z,90.80
2018-12-16T10:31:11.002Z,92.03
2018-12-16T10:36:14.347Z,92.54
2018-12-16T10:41:17.509Z,91.23
2018-12-16T10:46:20.849Z,90.54
2018-12-16T10:51:24.045Z,90.77
2018-12-16T10:56:27.466Z,89.87
2018-12-16T11:01:30.759Z,89.13
2018-12-16T11:06:34.045Z,87.25
2018-12-16T11:11:37.316Z,86.70
2018-12-16T11:16:40.565Z,86.44
2018-12-16T11:21:45.780Z,83.98
2018-12-16T11:26:49.047Z,85.62
2018-12-16T11:31:52.322Z,86.06
2018-12-16T11:36:55.707Z,86.45
2018-12-16T11:41:58.900Z,88.44
2018-12-16T11:47:02.157Z,88.84
2018-12-16T11:52:05.462Z,88.87
2018-12-16T11:57:08.918Z,90.30
2018-12-16T12:02:12.313Z,91.07
2018-12-16T12:07:17.700Z,91.84
2018-12-16T12:12:20.958Z,92.57
2018-12-16T12:17:24.193Z,95.21
2018-12-16T12:22:27.457Z,96.52
2018-12-16T12:27:30.947Z,97.70
2018-12-16T12:32:34.715Z,98.26
2018-12-16T12:37:39.083Z,98.75
2018-12-16T12:42:42.303Z,98.54
2018-12-16T12:47:45.554Z,97.29
2018-12-16T12:52:48.727Z,97.67
2018-12-16T12:57:53.085Z,98.16
2018-12-16T13:02:56.553Z,97.31
2018-12-16T13:07:59.998Z,97.55
2018-12-16T13:13:03.278Z,97.44
2018-12-16T13:18:06.773Z,97.34
2018-12-16T13:23:10.093Z,97.92
2018-12-16T13:28:13.449Z,99.50
2018-12-16T13:33:16.743Z,100.00
2018-12-16T13:38:19.957Z,100.00
2018-12-16T13:43:23.210Z,100.00
2018-12-16T13:48:26.480Z,100.00
2018-12-16T13:53:29.749Z,100.00
2018-12-16T13:58:32.916Z,100.00
2018-12-16T14:03:36.203Z,100.00
2018-12-16T14:08:40.045Z,100.00
2018-12-16T14:13:44.554Z,100.00
2018-12-16T14:18:48.535Z,100.00
2018-12-16T14:23:51.687Z,98.74
2018-12-16T14:28:54.891Z,94.45
2018-12-16T14:33:58.172Z,91.47
2018-12-16T14:39:01.288Z,90.70
2018-12-16T14:44:06.605Z,89.98
2018-12-16T14:49:09.901Z,86.92
2018-12-16T14:54:13.273Z,87.17
2018-12-16T14:59:16.662Z,87.24
2018-12-16T15:04:20.090Z,86.30
2018-12-16T15:09:23.314Z,87.54
2018-12-16T15:14:26.555Z,86.86
2018-12-16T15:19:29.858Z,89.32
2018-12-16T15:24:33.246Z,92.17
2018-12-16T15:29:36.668Z,91.61
2018-12-16T15:34:41.429Z,91.91
2018-12-16T15:39:46.453Z,92.70
2018-12-16T15:44:49.909Z,91.51
2018-12-16T15:49:53.152Z,93.46
2018-12-16T15:54:56.595Z,94.53
2018-12-16T16:00:00.041Z,92.14
2018-12-16T16:05:03.457Z,91.14
2018-12-16T16:10:08.057Z,89.25
2018-12-16T16:15:11.354Z,86.88
2018-12-16T16:20:14.749Z,87.43
2018-12-16T16:25:18.171Z,87.54
2018-12-16T16:30:21.496Z,85.75
2018-12-16T16:35:24.995Z,89.31
2018-12-16T16:40:29.541Z,90.89
2018-12-16T16:45:32.771Z,92.71
2018-12-16T16:50:36.056Z,92.63
2018-12-16T16:55:39.838Z,91.41
2018-12-16T17:00:43.134Z,90.24
2018-12-16T17:05:46.639Z,88.31
2018-12-16T17:10:50.038Z,86.98
2018-12-16T17:15:53.322Z,87.61
2018-12-16T17:20:56.647Z,86.99
2018-12-16T17:26:00.035Z,85.71
2018-12-16T17:31:03.949Z,85.75
2018-12-16T17:36:07.525Z,85.46
2018-12-16T17:41:10.843Z,85.12
2018-12-16T17:46:14.452Z,84.37
2018-12-16T17:51:18.063Z,83.75
2018-12-16T17:56:21.618Z,84.48
2018-12-16T18:01:24.997Z,84.15
2018-12-16T18:06:28.524Z,84.62
2018-12-16T18:11:31.990Z,83.94
2018-12-16T18:16:35.446Z,83.34
2018-12-16T18:21:38.950Z,81.67
2018-12-16T18:26:44.156Z,82.77
2018-12-16T18:31:47.831Z,83.52
2018-12-16T18:36:51.376Z,81.97
2018-12-16T18:41:55.281Z,82.20
2018-12-16T18:46:58.695Z,82.61
2018-12-16T18:52:02.089Z,82.18
2018-12-16T18:57:07.397Z,82.80
2018-12-16T19:02:12.480Z,81.73
2018-12-16T19:07:15.934Z,82.69
2018-12-16T19:12:19.260Z,81.47
2018-12-16T19:17:22.544Z,82.59
2018-12-16T19:22:26.235Z,81.53
2018-12-16T19:27:29.827Z,82.24
2018-12-16T19:32:33.714Z,82.63
2018-12-16T19:37:39.099Z,81.89
2018-12-16T19:42:42.638Z,81.10
2018-12-16T19:47:49.660Z,81.08
2018-12-16T19:52:53.380Z,80.12
2018-12-16T19:57:56.690Z,79.96
2018-12-16T20:03:00.078Z,80.94
2018-12-16T20:08:03.674Z,79.11
2018-12-16T20:13:07.013Z,79.33
2018-12-16T20:18:10.271Z,79.28
2018-12-16T20:23:14.189Z,79.93
2018-12-16T20:28:17.589Z,78.61
2018-12-16T20:33:21.235Z,78.05
2018-12-16T20:38:24.844Z,78.54
2018-12-16T20:43:28.083Z,79.28
2018-12-16T20:48:31.306Z,80.61
2018-12-16T20:53:34.616Z,79.80
2018-12-16T20:58:37.958Z,79.10
2018-12-16T21:03:41.568Z,76.96
2018-12-16T21:08:44.937Z,77.67
2018-12-16T21:13:53.753Z,81.35
2018-12-16T21:18:57.245Z,78.83
2018-12-16T21:24:01.150Z,79.58
2018-12-16T21:29:04.537Z,78.89
2018-12-16T21:34:08.040Z,78.99
2018-12-16T21:39:11.582Z,78.60
2018-12-16T21:44:16.880Z,78.75
2018-12-16T21:49:20.118Z,79.32
2018-12-16T21:54:23.407Z,79.64
2018-12-16T21:59:26.827Z,79.57
2018-12-16T22:04:30.277Z,79.88
2018-12-16T22:09:33.981Z,80.13
2018-12-16T22:14:37.129Z,79.62
2018-12-16T22:19:40.440Z,79.36
2018-12-16T22:24:43.685Z,78.80
2018-12-16T22:29:46.876Z,79.04
2018-12-16T22:34:50.124Z,78.17
2018-12-16T22:39:53.476Z,80.50
2018-12-16T22:44:57.016Z,79.22
2018-12-16T22:50:01.304Z,82.89
2018-12-16T22:55:05.507Z,77.89
2018-12-16T23:00:13.560Z,79.85
2018-12-16T23:05:18.853Z,79.79
2018-12-16T23:10:22.204Z,79.84
2018-12-16T23:15:25.639Z,79.15
2018-12-16T23:20:28.944Z,79.99
2018-12-16T23:25:32.211Z,79.44
2018-12-16T23:30:35.602Z,81.01
2018-12-16T23:35:38.798Z,83.18
2018-12-16T23:40:42.209Z,85.00
2018-12-16T23:45:45.505Z,85.25
2018-12-16T23:50:49.902Z,86.42
2018-12-16T23:55:53.243Z,87.08
